Time;durP1;ratioP1;P1;durP2;ratioP2;P2;SDS_P1;SDS_P2;PMS_P1;PMS_P2;Temp;Humidity;BMP_temperature;BMP_pressure;BME280_temperature;BME280_humidity;BME280_pressure;Samples;Min_cycle;Max_cycle;Signal;HPM_P1;HPM_P2
2023/01/23 00:01:35;;;;;;;;;;;;;;;21.30;30.21;98893.19;5081612;28;801;-80
2023/01/23 00:04:00;;;;;;;;;;;;;;;21.43;29.63;98889.81;5080663;28;810;-80
2023/01/23 00:06:26;;;;;;;;;;;;;;;21.65;29.45;98899.63;5081814;28;901;-80
2023/01/23 00:08:51;;;;;;;;;;;;;;;21.43;29.54;98898.28;5063426;28;1139;-80
2023/01/23 00:11:20;;;;;;;;;;;;;;;21.36;29.90;98898.38;5082145;28;750;-80
2023/01/23 00:13:47;;;;;;;;;;;;;;;21.24;29.65;98905.34;5081099;28;1048;-81
2023/01/23 00:16:14;;;;;;;;;;;;;;;21.26;30.05;98908.56;5065233;28;1906;-81
2023/01/23 00:18:39;;;;;;;;;;;;;;;21.61;29.58;98915.88;5063290;28;818;-80
2023/01/23 00:21:05;;;;;;;;;;;;;;;21.49;29.56;98913.59;5065858;28;1184;-80
2023/01/23 00:23:31;;;;;;;;;;;;;;;21.17;29.79;98914.72;5079792;28;810;-81
2023/01/23 00:26:00;;;;;;;;;;;;;;;21.10;30.14;98911.97;5082909;28;719;-81
2023/01/23 00:28:26;;;;;;;;;;;;;;;21.11;29.98;98922.06;5081181;28;881;-80
2023/01/23 00:30:51;;;;;;;;;;;;;;;21.43;29.72;98920.94;5081012;28;770;-81
2023/01/23 00:33:17;;;;;;;;;;;;;;;21.58;29.48;98922.38;5081074;28;865;-80
2023/01/23 00:35:42;;;;;;;;;;;;;;;21.19;29.88;98923.59;5081484;28;1909;-81
2023/01/23 00:38:08;;;;;;;;;;;;;;;21.16;30.12;98924.44;5080479;28;742;-81
2023/01/23 00:40:33;;;;;;;;;;;;;;;21.23;29.66;98927.19;5047553;28;1173;-80
2023/01/23 00:42:59;;;;;;;;;;;;;;;21.13;29.76;98925.25;5081561;28;935;-80
2023/01/23 00:45:24;;;;;;;;;;;;;;;21.38;29.87;98932.72;5080591;28;1235;-80
2023/01/23 00:47:50;;;;;;;;;;;;;;;21.66;29.15;98935.25;5080753;28;1214;-81
2023/01/23 00:50:15;;;;;;;;;;;;;;;21.60;29.44;98936.91;5079976;28;1217;-81
2023/01/23 00:52:41;;;;;;;;;;;;;;;21.51;29.69;98945.13;5062934;28;1238;-81
2023/01/23 00:55:07;;;;;;;;;;;;;;;21.23;30.15;98947.00;5079448;28;751;-80
2023/01/23 00:57:32;;;;;;;;;;;;;;;21.10;30.14;98959.28;5080940;28;1913;-81
2023/01/23 00:59:57;;;;;;;;;;;;;;;20.97;30.46;98956.16;5096750;28;1535;-80
2023/01/23 01:02:24;;;;;;;;;;;;;;;21.27;29.92;98959.09;5064060;28;1142;-80
2023/01/23 01:04:51;;;;;;;;;;;;;;;21.21;30.45;98955.13;5079908;28;1224;-80
2023/01/23 01:07:17;;;;;;;;;;;;;;;21.66;29.15;98960.75;5082397;28;747;-80
2023/01/23 01:09:42;;;;;;;;;;;;;;;21.45;29.48;98955.28;5080574;28;1090;-81
2023/01/23 01:12:08;;;;;;;;;;;;;;;21.08;30.21;98959.69;5062834;28;1186;-80
2023/01/23 01:14:33;;;;;;;;;;;;;;;20.96;30.25;98965.88;5079469;28;708;-80
2023/01/23 01:16:59;;;;;;;;;;;;;;;21.12;29.92;98957.63;5081174;28;1973;-80
2023/01/23 01:19:24;;;;;;;;;;;;;;;21.16;30.02;98968.91;5080565;28;754;-80
2023/01/23 01:21:49;;;;;;;;;;;;;;;21.49;29.54;98970.22;5080842;28;817;-80
2023/01/23 01:24:16;;;;;;;;;;;;;;;22.04;28.77;98972.00;5079574;28;1122;-80
2023/01/23 01:26:41;;;;;;;;;;;;;;;21.54;29.20;98964.91;5081457;28;790;-80
2023/01/23 01:29:07;;;;;;;;;;;;;;;21.21;29.87;98971.28;5062836;28;726;-80
2023/01/23 01:31:33;;;;;;;;;;;;;;;21.33;29.65;98960.28;5080543;28;702;-80
2023/01/23 01:33:58;;;;;;;;;;;;;;;21.21;29.76;98965.63;5062662;28;1249;-80
2023/01/23 01:36:24;;;;;;;;;;;;;;;21.36;29.81;98966.34;5097454;28;1905;-80
2023/01/23 01:38:49;;;;;;;;;;;;;;;21.14;30.28;98966.53;5080860;28;793;-80
2023/01/23 01:41:15;;;;;;;;;;;;;;;21.40;29.53;98967.06;5081388;28;869;-80
2023/01/23 01:43:40;;;;;;;;;;;;;;;21.24;30.00;98962.78;5080045;28;722;-80
2023/01/23 01:46:12;;;;;;;;;;;;;;;21.10;30.05;98968.56;5082237;28;779;-80
2023/01/23 01:48:42;;;;;;;;;;;;;;;21.37;29.51;98965.91;5079503;28;786;-80
2023/01/23 01:51:10;;;;;;;;;;;;;;;21.87;28.84;98968.19;5064083;28;1320;-80
2023/01/23 01:53:36;;;;;;;;;;;;;;;21.64;29.30;98954.69;5062458;28;1134;-80
2023/01/23 01:56:01;;;;;;;;;;;;;;;21.07;30.27;98960.91;5064174;28;1918;-80
2023/01/23 01:58:27;;;;;;;;;;;;;;;21.01;30.19;98962.59;5078749;28;1250;-80
2023/01/23 02:00:53;;;;;;;;;;;;;;;21.38;29.81;98958.22;5080274;28;743;-80
2023/01/23 02:03:18;;;;;;;;;;;;;;;21.23;29.70;98952.66;5080428;28;749;-80
2023/01/23 02:05:45;;;;;;;;;;;;;;;21.46;29.38;98954.09;5067438;28;1228;-81
2023/01/23 02:08:16;;;;;;;;;;;;;;;21.63;29.47;98952.28;5082350;28;1162;-80
2023/01/23 02:10:45;;;;;;;;;;;;;;;21.39;29.32;98948.50;5084519;28;1218;-81
2023/01/23 02:13:32;;;;;;;;;;;;;;;21.37;29.54;98956.59;5082315;28;710;-80
2023/01/23 02:15:58;;;;;;;;;;;;;;;21.42;29.36;98954.13;5067898;28;1953;-80
2023/01/23 02:18:25;;;;;;;;;;;;;;;21.43;29.68;98957.75;5065495;28;1237;-80
2023/01/23 02:20:51;;;;;;;;;;;;;;;21.50;29.58;98957.66;5085014;28;765;-80
2023/01/23 02:23:35;;;;;;;;;;;;;;;21.40;29.57;98967.06;5024394;28;1148;-81
2023/01/23 02:26:02;;;;;;;;;;;;;;;21.43;29.26;98966.25;5026980;28;1433;-80
2023/01/23 02:28:41;;;;;;;;;;;;;;;21.41;29.49;98968.72;5024132;28;1164;-80
2023/01/23 02:31:07;;;;;;;;;;;;;;;21.38;29.49;98966.69;5026792;28;1227;-80
2023/01/23 02:33:33;;;;;;;;;;;;;;;21.31;29.79;98971.22;5023588;28;1210;-80
2023/01/23 02:35:59;;;;;;;;;;;;;;;21.40;29.77;98976.41;5026098;28;1879;-80
2023/01/23 02:38:26;;;;;;;;;;;;;;;21.62;29.22;98981.84;5024609;28;1194;-81
2023/01/23 02:40:53;;;;;;;;;;;;;;;21.15;29.86;98985.09;5026318;28;1297;-81
2023/01/23 02:43:22;;;;;;;;;;;;;;;21.12;29.78;98980.25;5023944;28;1324;-80
2023/01/23 02:45:54;;;;;;;;;;;;;;;21.01;29.95;98990.88;5025658;28;1260;-80
2023/01/23 02:48:20;;;;;;;;;;;;;;;21.12;30.01;98985.91;5023815;28;1104;-80
2023/01/23 02:50:46;;;;;;;;;;;;;;;21.63;29.53;98998.38;5009012;28;1210;-80
2023/01/23 02:53:12;;;;;;;;;;;;;;;21.62;29.19;98988.28;5026542;28;1123;-81
2023/01/23 02:55:42;;;;;;;;;;;;;;;21.19;29.79;99000.03;5066010;28;1121;-80
2023/01/23 03:00:52;;;;;;;;;;;;;;;21.24;29.83;98999.56;5083562;28;1343;-81
2023/01/23 03:03:19;;;;;;;;;;;;;;;21.70;28.97;98995.47;5082247;28;769;-81
2023/01/23 03:05:46;;;;;;;;;;;;;;;21.72;29.13;98987.38;5083026;28;1149;-81
2023/01/23 03:08:11;;;;;;;;;;;;;;;21.40;29.11;98989.72;5064177;28;1246;-80
2023/01/23 03:10:37;;;;;;;;;;;;;;;21.19;29.48;98991.53;5082870;28;747;-79
2023/01/23 03:13:05;;;;;;;;;;;;;;;21.08;29.60;98985.16;5082251;28;1243;-80
2023/01/23 03:15:31;;;;;;;;;;;;;;;20.99;29.71;98994.13;5064963;28;1203;-80
2023/01/23 03:17:57;;;;;;;;;;;;;;;21.40;29.60;98989.72;5065234;28;1913;-80
2023/01/23 03:20:22;;;;;;;;;;;;;;;21.52;29.27;98989.22;5064959;28;1205;-80
2023/01/23 03:22:48;;;;;;;;;;;;;;;21.44;29.30;98985.63;5083183;28;715;-80
2023/01/23 03:25:14;;;;;;;;;;;;;;;21.22;29.74;98985.03;5064711;28;1159;-80
2023/01/23 03:27:39;;;;;;;;;;;;;;;21.27;29.26;98987.41;5049294;28;1098;-81
2023/01/23 03:30:15;;;;;;;;;;;;;;;21.21;29.89;98986.25;5063468;28;1130;-80
2023/01/23 03:32:41;;;;;;;;;;;;;;;21.36;29.57;98984.13;5082789;28;758;-80
2023/01/23 03:35:09;;;;;;;;;;;;;;;21.47;29.37;98984.00;5065441;28;1129;-81
2023/01/23 03:37:35;;;;;;;;;;;;;;;21.31;29.48;98991.03;5065922;28;1955;-81
2023/01/23 03:42:44;;;;;;;;;;;;;;;21.07;29.65;98992.03;5047126;28;1274;-80
2023/01/23 03:45:12;;;;;;;;;;;;;;;21.23;29.86;99003.59;5059689;28;1273;-80
2023/01/23 03:47:40;;;;;;;;;;;;;;;21.41;29.53;99008.34;5027871;28;1297;-80
2023/01/23 03:50:06;;;;;;;;;;;;;;;21.26;29.38;99005.63;5059958;28;1296;-80
2023/01/23 03:52:36;;;;;;;;;;;;;;;21.27;29.50;99001.56;5060750;28;1236;-81
2023/01/23 03:55:02;;;;;;;;;;;;;;;21.08;29.86;99002.13;5059764;28;754;-81
2023/01/23 03:57:27;;;;;;;;;;;;;;;20.95;29.87;98998.22;5060676;28;1882;-80
2023/01/23 04:00:12;;;;;;;;;;;;;;;21.24;29.75;99004.41;5059593;28;713;-81
2023/01/23 04:02:47;;;;;;;;;;;;;;;21.67;29.09;99002.00;5044222;28;949;-81
2023/01/23 04:05:13;;;;;;;;;;;;;;;21.43;29.19;99006.69;5026002;28;1245;-81
2023/01/23 04:07:39;;;;;;;;;;;;;;;21.32;29.26;99006.78;5026594;28;1244;-81
2023/01/23 04:10:04;;;;;;;;;;;;;;;21.20;29.63;99012.94;5042450;28;1318;-81
2023/01/23 04:12:30;;;;;;;;;;;;;;;21.43;29.72;99008.72;5027402;28;1211;-81
2023/01/23 04:14:56;;;;;;;;;;;;;;;21.36;29.35;99006.78;5065037;28;1115;-81
2023/01/23 04:17:21;;;;;;;;;;;;;;;21.57;29.05;99012.22;5099838;28;1980;-82
2023/01/23 04:19:47;;;;;;;;;;;;;;;21.24;29.62;99027.88;5083047;28;1037;-82
2023/01/23 04:22:13;;;;;;;;;;;;;;;21.10;29.86;99022.34;5100750;28;1185;-82
2023/01/23 04:24:44;;;;;;;;;;;;;;;20.85;29.99;99028.19;5098641;28;1363;-82
2023/01/23 04:27:10;;;;;;;;;;;;;;;21.40;29.41;99033.03;5080027;28;1216;-82
2023/01/23 04:29:36;;;;;;;;;;;;;;;21.39;29.37;99022.09;5080534;28;1244;-82
2023/01/23 04:32:03;;;;;;;;;;;;;;;21.38;29.67;99026.97;5064991;28;1253;-82
2023/01/23 04:34:31;;;;;;;;;;;;;;;21.26;29.64;99036.75;5062344;28;1094;-82
2023/01/23 04:36:56;;;;;;;;;;;;;;;21.07;29.82;99031.66;5063741;28;1980;-82
2023/01/23 04:39:22;;;;;;;;;;;;;;;21.41;29.12;99034.63;5061817;28;1305;-83
2023/01/23 04:41:48;;;;;;;;;;;;;;;21.49;29.16;99038.19;5063080;28;1321;-82
2023/01/23 04:44:35;;;;;;;;;;;;;;;21.54;29.15;99040.56;5048704;28;1074;-82
2023/01/23 04:47:26;;;;;;;;;;;;;;;21.20;29.44;99048.94;5080003;28;791;-83
2023/01/23 04:49:51;;;;;;;;;;;;;;;21.14;29.55;99040.09;5045387;28;1393;-83
2023/01/23 04:52:17;;;;;;;;;;;;;;;21.21;29.43;99034.38;5063701;28;1425;-83
2023/01/23 04:54:51;;;;;;;;;;;;;;;21.37;29.54;99033.03;5078352;28;1001;-80
2023/01/23 04:57:17;;;;;;;;;;;;;;;21.51;29.62;99047.06;5080063;28;1977;-81
2023/01/23 04:59:42;;;;;;;;;;;;;;;21.72;28.93;99034.72;5062856;28;1130;-81
2023/01/23 05:02:08;;;;;;;;;;;;;;;21.35;29.43;99043.97;5063247;28;1122;-81
2023/01/23 05:04:39;;;;;;;;;;;;;;;21.38;29.07;99043.16;5062911;28;1158;-81
2023/01/23 05:07:05;;;;;;;;;;;;;;;21.13;29.52;99046.97;5064429;28;1282;-81
2023/01/23 05:09:37;;;;;;;;;;;;;;;21.12;30.75;99053.03;5061457;28;1280;-81
2023/01/23 05:12:03;;;;;;;;;;;;;;;21.39;29.86;99065.38;5062819;28;1203;-80
2023/01/23 05:14:31;;;;;;;;;;;;;;;21.56;29.36;99055.13;5062301;28;1456;-81
2023/01/23 05:16:58;;;;;;;;;;;;;;;21.22;29.95;99067.09;5063263;28;1996;-80
2023/01/23 05:19:46;;;;;;;;;;;;;;;21.23;29.92;99071.53;5078630;28;1341;-80
2023/01/23 05:22:11;;;;;;;;;;;;;;;21.27;29.75;99071.50;5079471;28;857;-80
2023/01/23 05:24:37;;;;;;;;;;;;;;;21.28;30.21;99079.59;5078363;28;784;-80
2023/01/23 05:27:03;;;;;;;;;;;;;;;21.43;29.81;99082.34;5046437;28;1123;-81
2023/01/23 05:29:30;;;;;;;;;;;;;;;21.12;30.08;99095.50;5029578;28;1319;-80
2023/01/23 05:32:01;;;;;;;;;;;;;;;21.13;30.18;99100.72;5079505;28;719;-80
2023/01/23 05:34:35;;;;;;;;;;;;;;;21.23;30.10;99099.84;5078166;28;758;-80
2023/01/23 05:37:03;;;;;;;;;;;;;;;21.30;29.80;99114.00;5062985;28;1967;-80
2023/01/23 05:39:32;;;;;;;;;;;;;;;21.29;30.31;99111.53;5065713;28;1042;-81
2023/01/23 05:41:58;;;;;;;;;;;;;;;21.44;29.96;99109.41;5066842;28;1067;-80
2023/01/23 05:44:24;;;;;;;;;;;;;;;21.56;29.61;99117.44;5083872;28;802;-81
2023/01/23 05:46:58;;;;;;;;;;;;;;;21.37;29.74;99117.97;5069000;28;1250;-80
2023/01/23 05:49:23;;;;;;;;;;;;;;;21.40;29.81;99111.47;5045326;28;1195;-80
2023/01/23 05:51:50;;;;;;;;;;;;;;;21.30;30.37;99122.47;5063841;28;1150;-80
2023/01/23 05:54:16;;;;;;;;;;;;;;;21.74;29.32;99101.06;5045565;28;1189;-80
2023/01/23 05:56:44;;;;;;;;;;;;;;;21.61;29.87;99108.47;5030329;28;1910;-80
2023/01/23 05:59:28;;;;;;;;;;;;;;;21.48;29.53;99113.03;5062248;28;772;-80
2023/01/23 06:02:32;;;;;;;;;;;;;;;21.27;29.54;99117.59;4992831;28;692;-81
2023/01/23 06:05:22;;;;;;;;;;;;;;;21.54;30.42;99120.66;4983490;28;1002;-80
2023/01/23 06:08:10;;;;;;;;;;;;;;;21.78;29.34;99124.50;4969136;28;1360;-80
2023/01/23 06:10:37;;;;;;;;;;;;;;;21.49;29.92;99125.97;4967421;28;1299;-80
2023/01/23 06:13:02;;;;;;;;;;;;;;;21.53;29.67;99119.06;4951560;28;1238;-80
2023/01/23 06:15:28;;;;;;;;;;;;;;;21.25;30.10;99131.38;4982894;28;1324;-81
2023/01/23 06:17:55;;;;;;;;;;;;;;;21.28;29.93;99135.41;4967033;28;1991;-81
2023/01/23 06:20:21;;;;;;;;;;;;;;;21.56;29.98;99123.09;4951903;28;1160;-81
2023/01/23 06:22:48;;;;;;;;;;;;;;;21.57;29.82;99133.19;4967648;28;1143;-80
2023/01/23 06:25:14;;;;;;;;;;;;;;;21.18;30.25;99131.41;4966999;28;1282;-81
2023/01/23 06:27:39;;;;;;;;;;;;;;;21.37;30.09;99132.13;4967732;28;1210;-80
2023/01/23 06:30:07;;;;;;;;;;;;;;;21.27;30.00;99125.31;4982392;28;908;-80
2023/01/23 06:32:38;;;;;;;;;;;;;;;21.15;30.12;99126.59;4976288;28;1189;-80
2023/01/23 06:35:04;;;;;;;;;;;;;;;21.41;30.10;99121.59;5021680;28;1118;-80
2023/01/23 06:37:34;;;;;;;;;;;;;;;21.37;30.40;99129.31;5005953;28;1910;-80
2023/01/23 06:40:00;;;;;;;;;;;;;;;21.62;29.70;99127.06;5021574;28;743;-81
2023/01/23 06:42:26;;;;;;;;;;;;;;;21.49;29.75;99123.94;5047021;28;1108;-80
2023/01/23 06:44:52;;;;;;;;;;;;;;;21.23;30.07;99133.81;5082198;28;1169;-80
2023/01/23 06:47:22;;;;;;;;;;;;;;;21.14;30.38;99144.81;5083355;28;1391;-80
2023/01/23 06:49:54;;;;;;;;;;;;;;;21.46;30.20;99133.28;5081903;28;1383;-81
2023/01/23 06:52:20;;;;;;;;;;;;;;;21.58;29.99;99143.28;5067087;28;1188;-80
2023/01/23 06:54:46;;;;;;;;;;;;;;;21.87;29.32;99148.72;5065641;28;1261;-80
2023/01/23 06:57:12;;;;;;;;;;;;;;;21.44;29.74;99161.19;5066792;28;1902;-80
2023/01/23 06:59:37;;;;;;;;;;;;;;;21.29;30.01;99166.13;5082179;28;1111;-80
2023/01/23 07:02:07;;;;;;;;;;;;;;;21.11;30.09;99165.44;5067089;28;1351;-80
2023/01/23 07:04:41;;;;;;;;;;;;;;;21.55;29.95;99158.28;5082163;28;880;-80
2023/01/23 07:07:06;;;;;;;;;;;;;;;21.74;29.58;99146.38;5083591;28;1124;-80
2023/01/23 07:09:32;;;;;;;;;;;;;;;21.60;29.60;99152.16;5082197;28;1224;-81
2023/01/23 07:12:06;;;;;;;;;;;;;;;21.37;30.01;99168.94;5083302;28;1152;-81
2023/01/23 07:14:32;;;;;;;;;;;;;;;21.19;30.31;99160.53;5082325;28;1325;-80
2023/01/23 07:16:58;;;;;;;;;;;;;;;21.18;30.18;99171.03;5066176;28;1901;-81
2023/01/23 07:19:24;;;;;;;;;;;;;;;21.23;29.89;99176.28;5081648;28;1281;-81
2023/01/23 07:21:50;;;;;;;;;;;;;;;21.33;30.21;99171.78;5082740;28;1257;-80
2023/01/23 07:24:15;;;;;;;;;;;;;;;21.30;30.12;99175.47;5081478;28;751;-80
2023/01/23 07:26:40;;;;;;;;;;;;;;;21.17;30.50;99174.28;5084149;28;778;-81
2023/01/23 07:29:07;;;;;;;;;;;;;;;21.41;29.75;99186.72;5083162;28;750;-81
2023/01/23 07:31:33;;;;;;;;;;;;;;;21.30;30.21;99189.63;5066599;28;853;-80
2023/01/23 07:34:00;;;;;;;;;;;;;;;21.09;30.22;99179.22;5060158;28;895;-80
2023/01/23 07:36:26;;;;;;;;;;;;;;;21.38;30.07;99179.03;5060778;28;1980;-80
2023/01/23 07:38:52;;;;;;;;;;;;;;;21.07;30.31;99187.28;5043517;28;1227;-80
2023/01/23 07:41:17;;;;;;;;;;;;;;;21.46;30.21;99186.28;5044516;28;743;-81
2023/01/23 07:43:42;;;;;;;;;;;;;;;21.72;29.71;99182.03;5043187;28;777;-80
2023/01/23 07:46:08;;;;;;;;;;;;;;;21.41;29.89;99190.34;5061484;28;786;-81
2023/01/23 07:48:35;;;;;;;;;;;;;;;21.28;30.11;99187.16;5059700;28;868;-80
2023/01/23 07:51:00;;;;;;;;;;;;;;;21.14;30.24;99181.59;5045142;28;806;-80
2023/01/23 07:53:26;;;;;;;;;;;;;;;20.88;30.68;99179.31;5042542;28;1199;-80
2023/01/23 07:55:51;;;;;;;;;;;;;;;21.10;30.89;99189.31;5044686;28;1983;-81
2023/01/23 07:58:17;;;;;;;;;;;;;;;21.22;30.37;99194.47;5059561;28;1234;-80
2023/01/23 08:00:42;;;;;;;;;;;;;;;21.43;30.13;99187.09;5044039;28;850;-80
2023/01/23 08:03:08;;;;;;;;;;;;;;;21.72;29.44;99188.50;5042954;28;916;-80
2023/01/23 08:05:33;;;;;;;;;;;;;;;21.37;30.04;99194.44;5077516;28;837;-80
2023/01/23 08:07:59;;;;;;;;;;;;;;;21.38;30.11;99207.34;5081168;28;1087;-80
2023/01/23 08:10:24;;;;;;;;;;;;;;;21.12;30.22;99201.00;5081209;28;806;-80
2023/01/23 08:12:49;;;;;;;;;;;;;;;21.24;29.92;99203.38;5081035;28;972;-80
2023/01/23 08:15:15;;;;;;;;;;;;;;;21.07;30.56;99207.09;5081894;28;833;-80
2023/01/23 08:17:40;;;;;;;;;;;;;;;21.35;30.20;99202.50;5082589;28;1914;-81
2023/01/23 08:20:06;;;;;;;;;;;;;;;21.47;30.21;99207.69;5080463;28;1190;-80
2023/01/23 08:22:32;;;;;;;;;;;;;;;21.13;30.27;99205.44;5080143;28;1342;-81
2023/01/23 08:24:57;;;;;;;;;;;;;;;20.93;30.94;99210.00;5080784;28;750;-80
2023/01/23 08:27:23;;;;;;;;;;;;;;;21.03;30.53;99209.13;5081549;28;790;-80
2023/01/23 08:29:48;;;;;;;;;;;;;;;21.73;29.70;99211.97;5081437;28;762;-80
2023/01/23 08:32:14;;;;;;;;;;;;;;;21.28;30.52;99214.66;5082127;28;1572;-80
2023/01/23 08:34:39;;;;;;;;;;;;;;;21.53;30.13;99211.69;5080956;28;750;-81
2023/01/23 08:37:05;;;;;;;;;;;;;;;21.29;30.25;99210.59;5081359;28;1898;-80
2023/01/23 08:39:30;;;;;;;;;;;;;;;21.27;30.02;99208.19;5081869;28;741;-81
2023/01/23 08:41:56;;;;;;;;;;;;;;;21.16;30.24;99213.13;5080926;28;767;-80
2023/01/23 08:44:22;;;;;;;;;;;;;;;21.12;30.18;99215.16;5063630;28;770;-80
2023/01/23 08:46:48;;;;;;;;;;;;;;;21.43;30.23;99209.75;5065072;28;758;-80
2023/01/23 08:49:13;;;;;;;;;;;;;;;21.54;29.65;99205.63;5080982;28;829;-80
2023/01/23 08:51:39;;;;;;;;;;;;;;;21.28;29.86;99209.81;5080478;28;917;-81
2023/01/23 08:54:04;;;;;;;;;;;;;;;21.18;30.13;99210.66;5080395;28;743;-81
2023/01/23 08:56:30;;;;;;;;;;;;;;;21.28;29.88;99209.81;5080096;28;1918;-81
2023/01/23 08:58:55;;;;;;;;;;;;;;;21.23;29.88;99201.75;5061659;28;767;-81
2023/01/23 09:01:22;;;;;;;;;;;;;;;21.63;29.79;99210.81;5080425;28;825;-81
2023/01/23 09:03:47;;;;;;;;;;;;;;;21.58;29.76;99194.25;5078872;28;754;-81
2023/01/23 09:06:13;;;;;;;;;;;;;;;21.66;29.53;99201.50;5062826;28;1353;-81
2023/01/23 09:08:39;;;;;;;;;;;;;;;21.31;29.79;99202.56;5077956;28;1180;-81
2023/01/23 09:11:05;;;;;;;;;;;;;;;21.43;29.65;99198.41;5080009;28;888;-81
2023/01/23 09:13:30;;;;;;;;;;;;;;;21.07;30.08;99192.94;5078362;28;801;-81
2023/01/23 09:15:56;;;;;;;;;;;;;;;21.46;30.17;99192.75;5061978;28;1972;-81
2023/01/23 09:18:21;;;;;;;;;;;;;;;21.41;29.83;99203.72;5060192;28;1328;-81
2023/01/23 09:20:48;;;;;;;;;;;;;;;21.27;30.02;99199.72;5078568;28;1256;-81
2023/01/23 09:23:13;;;;;;;;;;;;;;;21.33;29.66;99200.91;5077199;28;1289;-81
2023/01/23 09:25:39;;;;;;;;;;;;;;;21.09;30.27;99207.50;5078364;28;1295;-81
2023/01/23 09:28:04;;;;;;;;;;;;;;;21.13;29.97;99202.63;5078203;28;1213;-81
2023/01/23 09:30:30;;;;;;;;;;;;;;;21.55;29.89;99201.59;5080040;28;1193;-81
2023/01/23 09:32:55;;;;;;;;;;;;;;;21.29;30.11;99183.09;5080099;28;1264;-82
2023/01/23 09:35:22;;;;;;;;;;;;;;;21.57;29.56;99193.47;5079689;28;1414;-82
2023/01/23 09:38:00;;;;;;;;;;;;;;;21.28;30.09;99187.16;5078593;28;1906;-82
2023/01/23 09:40:46;;;;;;;;;;;;;;;21.15;30.26;99194.53;5079210;28;1221;-82
2023/01/23 09:43:13;;;;;;;;;;;;;;;21.31;29.84;99185.56;5056836;28;1197;-82
2023/01/23 09:45:39;;;;;;;;;;;;;;;21.75;29.25;99187.66;5040677;28;1348;-82
2023/01/23 09:48:16;;;;;;;;;;;;;;;21.55;29.64;99190.25;5017068;28;1290;-82
2023/01/23 09:50:46;;;;;;;;;;;;;;;21.41;29.99;99189.56;5001614;28;1255;-82
2023/01/23 09:53:12;;;;;;;;;;;;;;;21.19;29.90;99195.31;4984097;28;1243;-82
2023/01/23 09:55:55;;;;;;;;;;;;;;;21.28;29.80;99204.13;5004654;28;1294;-82
2023/01/23 09:58:25;;;;;;;;;;;;;;;21.69;29.43;99206.31;5017153;28;1107;-82
2023/01/23 10:00:51;;;;;;;;;;;;;;;21.73;29.37;99198.59;5001908;28;1231;-82
2023/01/23 10:03:17;;;;;;;;;;;;;;;21.77;28.99;99185.22;5024285;28;1249;-82
2023/01/23 10:05:51;;;;;;;;;;;;;;;21.29;29.84;99191.59;5006996;28;1226;-82
2023/01/23 10:08:35;;;;;;;;;;;;;;;21.23;29.79;99184.75;4994483;28;1330;-82
2023/01/23 10:11:05;;;;;;;;;;;;;;;21.12;29.83;99183.22;5020354;28;811;-82
2023/01/23 10:13:39;;;;;;;;;;;;;;;21.35;30.05;99182.69;5017428;28;1016;-82
2023/01/23 10:16:23;;;;;;;;;;;;;;;21.51;29.92;99183.00;5025180;28;1953;-82
2023/01/23 10:19:07;;;;;;;;;;;;;;;21.56;29.38;99176.91;5061894;28;1137;-82
2023/01/23 10:21:54;;;;;;;;;;;;;;;21.24;29.84;99179.91;5081818;28;758;-82
2023/01/23 10:24:26;;;;;;;;;;;;;;;21.24;29.76;99180.75;5097030;28;1263;-82
2023/01/23 10:26:52;;;;;;;;;;;;;;;21.43;29.99;99175.78;5083569;28;1259;-82
2023/01/23 10:29:17;;;;;;;;;;;;;;;21.62;29.70;99178.06;5065057;28;1387;-82
2023/01/23 10:31:45;;;;;;;;;;;;;;;21.31;29.88;99168.59;5084652;28;1089;-82
2023/01/23 10:34:13;;;;;;;;;;;;;;;21.37;29.78;99171.78;5080933;28;1308;-82
2023/01/23 10:36:57;;;;;;;;;;;;;;;21.32;29.73;99173.81;5083688;28;1986;-82
2023/01/23 10:39:25;;;;;;;;;;;;;;;21.22;29.66;99176.69;5081299;28;1137;-82
2023/01/23 10:41:51;;;;;;;;;;;;;;;21.39;30.36;99178.63;5066150;28;1336;-82
2023/01/23 10:44:17;;;;;;;;;;;;;;;21.53;29.98;99172.06;5059451;28;1327;-82
2023/01/23 10:46:44;;;;;;;;;;;;;;;21.73;29.47;99178.78;5044194;28;1272;-82
2023/01/23 10:49:10;;;;;;;;;;;;;;;21.26;30.09;99172.63;5043768;28;1411;-82
2023/01/23 10:51:45;;;;;;;;;;;;;;;21.55;29.38;99166.75;5061482;28;1225;-82
2023/01/23 10:54:12;;;;;;;;;;;;;;;21.38;29.68;99167.72;5043798;28;1292;-82
2023/01/23 10:56:46;;;;;;;;;;;;;;;21.56;29.87;99157.06;5044285;28;1966;-82
2023/01/23 10:59:17;;;;;;;;;;;;;;;21.33;30.16;99164.09;5039759;28;1308;-82
2023/01/23 11:01:43;;;;;;;;;;;;;;;21.29;30.15;99160.44;5040694;28;1417;-82
2023/01/23 11:04:09;;;;;;;;;;;;;;;21.33;30.03;99155.59;5039363;28;1362;-82
2023/01/23 11:06:35;;;;;;;;;;;;;;;21.13;30.14;99168.66;5041264;28;1241;-82
2023/01/23 11:09:00;;;;;;;;;;;;;;;21.11;30.25;99171.09;5040412;28;1284;-82
2023/01/23 11:11:26;;;;;;;;;;;;;;;21.38;30.03;99164.88;5041977;28;787;-81
2023/01/23 11:14:07;;;;;;;;;;;;;;;21.36;30.05;99164.50;5040204;28;746;-82
2023/01/23 11:16:33;;;;;;;;;;;;;;;21.20;30.08;99170.66;5041190;28;1992;-82
2023/01/23 11:19:08;;;;;;;;;;;;;;;21.36;29.67;99165.31;5008076;28;1114;-83
2023/01/23 11:21:34;;;;;;;;;;;;;;;21.13;29.92;99171.47;5041793;28;806;-82
2023/01/23 11:24:12;;;;;;;;;;;;;;;21.43;29.95;99158.78;5023843;28;810;-82
2023/01/23 11:26:38;;;;;;;;;;;;;;;21.55;29.85;99170.44;5024639;28;790;-82
2023/01/23 11:29:17;;;;;;;;;;;;;;;21.29;29.83;99165.31;5023431;28;1130;-82
2023/01/23 11:31:43;;;;;;;;;;;;;;;21.53;29.33;99152.22;5025067;28;759;-82
2023/01/23 11:34:12;;;;;;;;;;;;;;;21.31;29.53;99151.59;5023913;28;1124;-82
2023/01/23 11:36:56;;;;;;;;;;;;;;;21.60;29.91;99146.50;5024498;28;1906;-82
2023/01/23 11:39:41;;;;;;;;;;;;;;;21.78;29.53;99147.16;5061421;28;1422;-83
2023/01/23 11:42:10;;;;;;;;;;;;;;;21.55;29.22;99149.78;5062580;28;746;-82
2023/01/23 11:44:36;;;;;;;;;;;;;;;21.44;29.45;99140.56;5044928;28;1105;-82
2023/01/23 11:47:07;;;;;;;;;;;;;;;21.16;29.71;99148.03;5062263;28;1197;-82
2023/01/23 11:49:39;;;;;;;;;;;;;;;21.43;29.88;99144.63;5060582;28;1106;-82
2023/01/23 11:52:23;;;;;;;;;;;;;;;21.27;29.95;99143.09;5062764;28;1257;-82
2023/01/23 11:54:58;;;;;;;;;;;;;;;21.41;29.75;99141.41;5061297;28;1117;-82
2023/01/23 11:57:30;;;;;;;;;;;;;;;21.16;29.88;99156.50;5045891;28;1906;-82
2023/01/23 12:00:14;;;;;;;;;;;;;;;21.19;29.81;99164.19;5060570;28;1054;-82
2023/01/23 12:02:49;;;;;;;;;;;;;;;21.46;29.33;99164.44;5062325;28;1231;-82
2023/01/23 12:05:33;;;;;;;;;;;;;;;21.59;29.55;99176.03;5061312;28;1198;-82
2023/01/23 12:08:11;;;;;;;;;;;;;;;21.53;29.77;99180.56;5061758;28;1103;-82
2023/01/23 12:10:43;;;;;;;;;;;;;;;21.25;29.85;99170.22;5062868;28;829;-82
2023/01/23 12:13:12;;;;;;;;;;;;;;;21.50;29.49;99158.72;5061572;28;857;-81
2023/01/23 12:15:46;;;;;;;;;;;;;;;20.93;30.28;99164.72;5061696;28;727;-81
2023/01/23 12:18:30;;;;;;;;;;;;;;;21.11;30.07;99165.44;5044014;28;1891;-82
2023/01/23 12:21:08;;;;;;;;;;;;;;;21.23;30.08;99162.13;5081026;28;1293;-82
2023/01/23 12:23:52;;;;;;;;;;;;;;;21.56;29.73;99168.41;5062104;28;805;-82
2023/01/23 12:26:18;;;;;;;;;;;;;;;21.26;29.81;99169.78;5080861;28;786;-82
2023/01/23 12:28:49;;;;;;;;;;;;;;;21.20;29.90;99176.31;5045246;28;1234;-82
2023/01/23 12:31:20;;;;;;;;;;;;;;;21.16;29.95;99179.16;5064351;28;1010;-82
2023/01/23 12:33:45;;;;;;;;;;;;;;;21.14;30.39;99175.94;5078837;28;775;-82
2023/01/23 12:36:11;;;;;;;;;;;;;;;21.36;30.13;99173.00;5080727;28;1913;-82
2023/01/23 12:38:36;;;;;;;;;;;;;;;21.50;29.44;99175.72;5078571;28;1226;-82
2023/01/23 12:41:12;;;;;;;;;;;;;;;21.22;29.98;99183.16;5080996;28;939;-82
2023/01/23 12:43:51;;;;;;;;;;;;;;;21.24;29.59;99186.41;5021983;28;1311;-82
2023/01/23 12:46:24;;;;;;;;;;;;;;;21.64;29.38;99191.78;5023416;28;924;-82
2023/01/23 12:48:54;;;;;;;;;;;;;;;21.34;29.61;99190.38;5022693;28;878;-82
2023/01/23 12:51:21;;;;;;;;;;;;;;;21.36;29.72;99187.16;5007452;28;897;-82
2023/01/23 12:53:49;;;;;;;;;;;;;;;21.13;29.90;99190.50;5022171;28;794;-82
2023/01/23 12:56:25;;;;;;;;;;;;;;;21.03;29.67;99197.81;5024133;28;1887;-82
2023/01/23 12:59:19;;;;;;;;;;;;;;;21.08;29.63;99188.91;5021955;28;925;-81
2023/01/23 13:01:45;;;;;;;;;;;;;;;21.30;29.43;99184.75;5036728;28;972;-82
2023/01/23 13:04:10;;;;;;;;;;;;;;;21.15;29.65;99186.03;5018774;28;904;-82
2023/01/23 13:06:38;;;;;;;;;;;;;;;21.27;29.82;99194.03;5003512;28;1229;-82
2023/01/23 13:09:06;;;;;;;;;;;;;;;21.24;29.87;99197.72;5018631;28;1061;-82
2023/01/23 13:11:50;;;;;;;;;;;;;;;21.24;29.84;99203.38;5003326;28;879;-82
2023/01/23 13:14:23;;;;;;;;;;;;;;;21.24;29.88;99203.38;5016332;28;1008;-82